createdAt,value
2023-04-16T00:00:56.902Z,22.80
2023-04-16T00:03:26.138Z,26.40
2023-04-16T00:05:55.868Z,27.93
2023-04-16T00:08:25.372Z,25.80
2023-04-16T00:10:54.012Z,26.07
2023-04-16T00:13:22.500Z,24.97
2023-04-16T00:15:50.302Z,24.67
2023-04-16T00:18:17.986Z,22.90
2023-04-16T00:20:47.264Z,25.03
2023-04-16T00:23:14.981Z,22.87
2023-04-16T00:25:42.825Z,23.10
2023-04-16T00:28:11.158Z,24.33
2023-04-16T00:30:39.219Z,22.57
2023-04-16T00:33:06.998Z,23.70
2023-04-16T00:35:35.150Z,22.70
2023-04-16T00:38:04.180Z,23.20
2023-04-16T00:40:32.176Z,22.83
2023-04-16T00:42:59.905Z,22.53
2023-04-16T00:45:28.025Z,23.83
2023-04-16T00:47:57.134Z,26.03
2023-04-16T00:50:25.631Z,22.73
2023-04-16T00:52:53.553Z,22.97
2023-04-16T00:55:22.687Z,26.60
2023-04-16T00:57:50.380Z,25.50
2023-04-16T01:00:18.473Z,23.87
2023-04-16T01:02:46.313Z,24.17
2023-04-16T01:05:14.172Z,23.33
2023-04-16T01:07:41.900Z,24.83
2023-04-16T01:10:10.145Z,24.53
2023-04-16T01:12:39.222Z,23.20
2023-04-16T01:15:08.449Z,24.80
2023-04-16T01:17:36.220Z,23.80
2023-04-16T01:20:04.406Z,24.30
2023-04-16T01:22:33.447Z,21.77
2023-04-16T01:25:01.244Z,23.20
2023-04-16T01:27:28.959Z,22.87
2023-04-16T01:29:56.865Z,22.33
2023-04-16T01:32:24.637Z,22.80
2023-04-16T01:34:52.383Z,22.83
2023-04-16T01:37:20.782Z,23.37
2023-04-16T01:39:49.868Z,24.40
2023-04-16T01:42:17.573Z,25.97
2023-04-16T01:44:45.520Z,27.10
2023-04-16T01:47:16.756Z,26.87
2023-04-16T01:49:45.646Z,26.07
2023-04-16T01:52:13.391Z,27.00
2023-04-16T01:54:41.078Z,27.20
2023-04-16T01:57:10.169Z,25.87
2023-04-16T01:59:37.969Z,26.50
2023-04-16T02:02:11.028Z,24.93
2023-04-16T02:04:39.408Z,26.53
2023-04-16T02:07:11.006Z,28.30
2023-04-16T02:09:39.963Z,29.20
2023-04-16T02:12:11.223Z,29.13
2023-04-16T02:14:39.104Z,28.57
2023-04-16T02:17:06.838Z,29.10
2023-04-16T02:19:34.566Z,29.20
2023-04-16T02:22:02.382Z,35.35
2023-04-16T02:24:30.482Z,32.13
2023-04-16T02:26:58.213Z,31.67
2023-04-16T02:29:27.274Z,31.20
2023-04-16T02:31:55.051Z,31.53
2023-04-16T02:34:22.795Z,32.20
2023-04-16T02:36:50.514Z,30.70
2023-04-16T02:39:18.194Z,31.57
2023-04-16T02:41:46.030Z,31.70
2023-04-16T02:44:13.764Z,31.50
2023-04-16T02:46:42.875Z,34.47
2023-04-16T02:49:10.791Z,32.20
2023-04-16T02:51:38.643Z,33.03
2023-04-16T02:54:06.324Z,31.57
2023-04-16T02:56:34.088Z,32.67
2023-04-16T02:59:01.787Z,32.73
2023-04-16T03:01:29.530Z,31.00
2023-04-16T03:03:58.769Z,31.87
2023-04-16T03:06:27.046Z,32.00
2023-04-16T03:08:55.262Z,30.20
2023-04-16T03:11:23.614Z,31.20
2023-04-16T03:13:51.324Z,30.93
2023-04-16T03:16:19.160Z,29.10
2023-04-16T03:18:47.469Z,29.77
2023-04-16T03:21:16.629Z,30.23
2023-04-16T03:23:44.352Z,36.90
2023-04-16T03:26:12.081Z,33.80
2023-04-16T03:28:39.792Z,30.67
2023-04-16T03:31:07.512Z,32.10
2023-04-16T03:33:35.238Z,32.27
2023-04-16T03:36:10.386Z,31.27
2023-04-16T03:38:39.417Z,30.77
2023-04-16T03:41:07.215Z,29.87
2023-04-16T03:43:34.938Z,30.17
2023-04-16T03:46:03.898Z,31.03
2023-04-16T03:48:31.637Z,31.73
2023-04-16T03:50:59.354Z,28.83
2023-04-16T03:53:27.040Z,30.73
2023-04-16T03:55:59.313Z,26.30
2023-04-16T03:58:27.114Z,28.43
2023-04-16T04:00:55.945Z,29.70
2023-04-16T04:03:23.904Z,31.07
2023-04-16T04:05:51.827Z,32.27
2023-04-16T04:08:21.161Z,30.80
2023-04-16T04:10:48.957Z,29.20
2023-04-16T04:13:18.018Z,30.67
2023-04-16T04:15:45.838Z,27.20
2023-04-16T04:18:13.515Z,29.97
2023-04-16T04:20:41.597Z,30.60
2023-04-16T04:23:09.313Z,28.33
2023-04-16T04:25:37.038Z,37.10
2023-04-16T04:28:04.979Z,32.07
2023-04-16T04:30:35.657Z,32.13
2023-04-16T04:33:03.551Z,32.17
2023-04-16T04:35:31.437Z,31.90
2023-04-16T04:37:59.180Z,33.07
2023-04-16T04:40:26.987Z,30.27
2023-04-16T04:42:54.707Z,31.00
2023-04-16T04:45:25.345Z,30.67
2023-04-16T04:47:54.767Z,31.60
2023-04-16T04:50:22.660Z,29.00
2023-04-16T04:52:50.444Z,29.50
2023-04-16T04:55:18.170Z,28.83
2023-04-16T04:57:45.906Z,28.97
2023-04-16T05:00:13.895Z,27.47
2023-04-16T05:02:41.775Z,28.40
2023-04-16T05:05:11.294Z,28.27
2023-04-16T05:07:39.076Z,27.80
2023-04-16T05:10:07.982Z,25.40
2023-04-16T05:12:35.837Z,25.97
2023-04-16T05:15:03.953Z,24.93
2023-04-16T05:17:31.761Z,26.40
2023-04-16T05:19:59.509Z,25.00
2023-04-16T05:22:28.559Z,26.70
2023-04-16T05:24:56.370Z,27.47
2023-04-16T05:27:24.166Z,31.35
2023-04-16T05:29:51.905Z,28.97
2023-04-16T05:32:19.720Z,27.13
2023-04-16T05:34:47.453Z,26.80
2023-04-16T05:37:15.508Z,27.23
2023-04-16T05:39:44.667Z,30.03
2023-04-16T05:42:12.381Z,31.20
2023-04-16T05:44:41.216Z,32.90
2023-04-16T05:47:09.453Z,30.53
2023-04-16T05:49:37.373Z,30.30
2023-04-16T05:52:05.647Z,28.17
2023-04-16T05:54:33.344Z,26.70
2023-04-16T05:57:02.773Z,28.30
2023-04-16T05:59:30.808Z,27.80
2023-04-16T06:01:58.644Z,26.17
2023-04-16T06:04:26.497Z,26.30
2023-04-16T06:06:54.260Z,25.90
2023-04-16T06:09:22.001Z,25.00
2023-04-16T06:11:50.258Z,24.20
2023-04-16T06:14:19.468Z,25.70
2023-04-16T06:16:47.177Z,23.10
2023-04-16T06:19:14.966Z,24.70
2023-04-16T06:21:42.760Z,22.67
2023-04-16T06:24:13.106Z,23.10
2023-04-16T06:26:41.098Z,22.23
2023-04-16T06:29:09.022Z,24.17
2023-04-16T06:31:38.377Z,22.23
2023-04-16T06:34:06.119Z,21.97
2023-04-16T06:36:33.875Z,23.73
2023-04-16T06:39:01.691Z,21.73
2023-04-16T06:41:29.492Z,21.00
2023-04-16T06:43:57.195Z,18.90
2023-04-16T06:46:25.121Z,19.63
2023-04-16T06:48:54.238Z,20.30
2023-04-16T06:51:22.087Z,21.87
2023-04-16T06:53:50.329Z,19.33
2023-04-16T06:56:18.064Z,18.67
2023-04-16T06:58:45.871Z,18.20
2023-04-16T07:01:13.748Z,18.80
2023-04-16T07:03:41.792Z,20.13
2023-04-16T07:06:10.955Z,18.40
2023-04-16T07:08:38.725Z,20.00
2023-04-16T07:11:06.709Z,18.83
2023-04-16T07:13:34.437Z,20.30
2023-04-16T07:16:02.291Z,20.27
2023-04-16T07:18:30.038Z,17.80
2023-04-16T07:20:58.334Z,17.97
2023-04-16T07:23:27.854Z,17.60
2023-04-16T07:25:55.860Z,19.60
2023-04-16T07:28:25.154Z,21.33
2023-04-16T07:30:52.919Z,20.73
2023-04-16T07:33:20.674Z,20.67
2023-04-16T07:35:48.738Z,22.23
2023-04-16T07:38:16.934Z,22.23
2023-04-16T07:40:46.218Z,23.87
2023-04-16T07:43:16.224Z,23.30
2023-04-16T07:45:44.014Z,22.50
2023-04-16T07:48:11.736Z,24.23
2023-04-16T07:50:39.551Z,24.33
2023-04-16T07:53:07.687Z,23.03
2023-04-16T07:55:35.423Z,22.80
2023-04-16T07:58:06.322Z,23.60
2023-04-16T08:00:34.036Z,23.50
2023-04-16T08:03:01.906Z,23.50
2023-04-16T08:05:29.851Z,24.17
2023-04-16T08:07:57.622Z,23.20
2023-04-16T08:10:25.383Z,24.40
2023-04-16T08:12:53.185Z,24.87
2023-04-16T08:15:22.336Z,24.40
2023-04-16T08:17:50.190Z,22.80
2023-04-16T08:20:19.338Z,25.10
2023-04-16T08:22:55.315Z,23.03
2023-04-16T08:25:24.607Z,21.23
2023-04-16T08:27:52.465Z,21.67
2023-04-16T08:30:21.760Z,24.57
2023-04-16T08:32:51.251Z,24.05
2023-04-16T08:35:19.044Z,21.33
2023-04-16T08:37:46.753Z,20.60
2023-04-16T08:40:14.560Z,21.40
2023-04-16T08:42:46.925Z,19.47
2023-04-16T08:45:16.363Z,20.07
2023-04-16T08:47:47.218Z,19.70
2023-04-16T08:50:17.847Z,19.67
2023-04-16T08:52:51.093Z,18.67
2023-04-16T08:55:20.745Z,17.50
2023-04-16T08:57:51.525Z,21.80
2023-04-16T09:00:20.686Z,19.20
2023-04-16T09:02:50.277Z,20.03
2023-04-16T09:05:21.326Z,19.90
2023-04-16T09:07:49.577Z,19.90
2023-04-16T09:10:18.161Z,19.70
2023-04-16T09:12:45.932Z,20.00
2023-04-16T09:15:14.775Z,20.10
2023-04-16T09:17:42.717Z,18.40
2023-04-16T09:20:11.308Z,21.07
2023-04-16T09:22:41.078Z,19.23
2023-04-16T09:25:12.176Z,18.70
2023-04-16T09:27:40.221Z,20.07
2023-04-16T09:30:23.693Z,19.60
2023-04-16T09:32:52.459Z,18.30
2023-04-16T09:35:20.801Z,20.55
2023-04-16T09:37:59.213Z,19.30
2023-04-16T09:40:30.314Z,16.77
2023-04-16T09:43:00.520Z,16.70
2023-04-16T09:45:32.541Z,16.83
2023-04-16T09:48:04.989Z,17.40
2023-04-16T09:50:32.774Z,18.17
2023-04-16T09:53:03.776Z,21.20
2023-04-16T09:55:31.477Z,18.40
2023-04-16T09:58:02.687Z,19.20
2023-04-16T10:00:31.713Z,18.63
2023-04-16T10:03:06.880Z,22.70
2023-04-16T10:05:35.078Z,21.80
2023-04-16T10:08:04.199Z,19.43
2023-04-16T10:10:33.040Z,18.50
2023-04-16T10:13:02.522Z,21.10
2023-04-16T10:15:30.644Z,17.67
2023-04-16T10:18:00.276Z,18.10
2023-04-16T10:20:28.438Z,15.50
2023-04-16T10:22:56.402Z,16.67
2023-04-16T10:25:26.356Z,17.13
2023-04-16T10:27:54.580Z,14.00
2023-04-16T10:30:22.833Z,15.47
2023-04-16T10:32:51.924Z,15.33
2023-04-16T10:35:21.278Z,14.57
2023-04-16T10:37:49.017Z,13.80
2023-04-16T10:40:29.362Z,13.60
2023-04-16T10:42:58.432Z,13.00
2023-04-16T10:45:32.583Z,13.20
2023-04-16T10:48:00.427Z,16.43
2023-04-16T10:50:36.058Z,15.40
2023-04-16T10:53:20.085Z,15.07
2023-04-16T10:56:15.407Z,14.30
2023-04-16T10:58:43.461Z,13.67
2023-04-16T11:01:16.884Z,14.57
2023-04-16T11:03:47.739Z,15.10
2023-04-16T11:06:17.582Z,16.83
2023-04-16T11:08:54.519Z,21.23
2023-04-16T11:11:24.447Z,19.50
2023-04-16T11:13:56.889Z,23.47
2023-04-16T11:16:27.078Z,17.60
2023-04-16T11:18:57.088Z,17.33
2023-04-16T11:21:26.589Z,23.50
2023-04-16T11:23:54.730Z,18.70
2023-04-16T11:26:27.006Z,24.90
2023-04-16T11:28:56.093Z,28.73
2023-04-16T11:31:24.387Z,27.90
2023-04-16T11:33:52.181Z,27.73
2023-04-16T11:36:19.929Z,27.23
2023-04-16T11:38:48.570Z,32.28
2023-04-16T11:41:22.553Z,31.27
2023-04-16T11:43:51.613Z,29.47
2023-04-16T11:46:27.463Z,31.13
2023-04-16T11:48:56.619Z,31.57
2023-04-16T11:51:24.570Z,35.43
2023-04-16T11:53:53.458Z,33.73
2023-04-16T11:56:30.306Z,33.50
2023-04-16T11:59:09.795Z,31.30
2023-04-16T12:01:39.174Z,32.93
2023-04-16T12:04:07.487Z,27.30
2023-04-16T12:06:35.635Z,27.10
2023-04-16T12:09:24.102Z,26.03
2023-04-16T12:11:51.995Z,25.03
2023-04-16T12:14:21.346Z,24.87
2023-04-16T12:16:49.219Z,25.20
2023-04-16T12:19:17.160Z,24.40
2023-04-16T12:21:46.956Z,21.70
2023-04-16T12:24:17.285Z,23.50
2023-04-16T12:26:47.296Z,22.87
2023-04-16T12:29:19.675Z,25.90
2023-04-16T12:31:49.488Z,24.50
2023-04-16T12:34:18.353Z,26.53
2023-04-16T12:36:47.028Z,27.13
2023-04-16T12:39:15.907Z,31.30
2023-04-16T12:41:44.748Z,31.60
2023-04-16T12:44:17.797Z,27.50
2023-04-16T12:46:46.392Z,32.40
2023-04-16T12:49:15.705Z,31.83
2023-04-16T12:51:43.458Z,34.40
2023-04-16T12:54:11.179Z,34.27
2023-04-16T12:56:39.030Z,33.67
2023-04-16T12:59:06.721Z,34.67
2023-04-16T13:01:37.010Z,34.60
2023-04-16T13:04:06.006Z,33.90
2023-04-16T13:06:36.808Z,33.87
2023-04-16T13:09:05.088Z,35.90
2023-04-16T13:11:33.577Z,36.07
2023-04-16T13:14:01.276Z,37.33
2023-04-16T13:16:29.000Z,36.60
2023-04-16T13:18:56.700Z,32.67
2023-04-16T13:21:24.646Z,30.93
2023-04-16T13:23:53.976Z,32.67
2023-04-16T13:26:22.059Z,34.90
2023-04-16T13:28:49.829Z,37.60
2023-04-16T13:31:20.454Z,38.17
2023-04-16T13:33:48.406Z,36.80
2023-04-16T13:36:16.156Z,39.10
2023-04-16T13:38:43.880Z,40.47
2023-04-16T13:41:12.913Z,41.03
2023-04-16T13:43:40.939Z,42.30
2023-04-16T13:46:08.807Z,39.60
2023-04-16T13:48:36.618Z,41.23
2023-04-16T13:51:04.553Z,41.50
2023-04-16T13:53:32.325Z,42.10
2023-04-16T13:56:00.302Z,42.53
2023-04-16T13:58:29.365Z,40.47
2023-04-16T14:00:57.290Z,42.17
2023-04-16T14:03:26.679Z,39.63
2023-04-16T14:05:54.515Z,38.90
2023-04-16T14:08:22.310Z,38.83
2023-04-16T14:10:50.150Z,42.37
2023-04-16T14:13:17.880Z,36.93
2023-04-16T14:15:47.119Z,40.47
2023-04-16T14:18:14.861Z,38.43
2023-04-16T14:20:42.732Z,34.37
2023-04-16T14:23:12.353Z,37.40
2023-04-16T14:25:40.291Z,38.00
2023-04-16T14:28:08.874Z,40.70
2023-04-16T14:30:36.687Z,38.00
2023-04-16T14:33:07.370Z,36.90
2023-04-16T14:35:35.945Z,38.30
2023-04-16T14:38:04.015Z,36.73
2023-04-16T14:40:31.792Z,38.30
2023-04-16T14:42:59.520Z,37.97
2023-04-16T14:45:29.840Z,38.43
2023-04-16T14:47:57.612Z,35.70
2023-04-16T14:50:26.691Z,37.50
2023-04-16T14:52:54.558Z,39.53
2023-04-16T14:55:22.417Z,38.50
2023-04-16T14:57:50.374Z,38.87
2023-04-16T15:00:18.613Z,37.30
2023-04-16T15:02:47.238Z,37.73
2023-04-16T15:05:15.447Z,39.70
2023-04-16T15:07:44.626Z,36.07
2023-04-16T15:10:13.120Z,33.93
2023-04-16T15:12:41.088Z,33.87
2023-04-16T15:15:10.537Z,32.60
2023-04-16T15:17:38.316Z,35.10
2023-04-16T15:20:09.243Z,35.83
2023-04-16T15:22:36.992Z,30.83
2023-04-16T15:25:06.938Z,29.37
2023-04-16T15:27:34.716Z,32.97
2023-04-16T15:30:02.471Z,33.27
2023-04-16T15:32:30.317Z,32.10
2023-04-16T15:34:57.998Z,32.97
2023-04-16T15:37:25.828Z,30.87
2023-04-16T15:39:53.700Z,32.70
2023-04-16T15:42:22.806Z,32.67
2023-04-16T15:44:50.623Z,48.47
2023-04-16T15:47:18.326Z,32.60
2023-04-16T15:49:46.131Z,35.47
2023-04-16T15:52:14.523Z,29.90
2023-04-16T15:54:42.274Z,30.93
2023-04-16T15:57:10.493Z,36.23
2023-04-16T15:59:39.548Z,35.58
2023-04-16T16:02:07.781Z,30.70
2023-04-16T16:04:35.749Z,31.87
2023-04-16T16:07:04.514Z,28.47
2023-04-16T16:09:32.347Z,27.90
2023-04-16T16:12:00.070Z,29.90
2023-04-16T16:14:27.813Z,26.13
2023-04-16T16:16:56.888Z,28.20
2023-04-16T16:19:24.810Z,28.37
2023-04-16T16:21:52.791Z,27.03
2023-04-16T16:24:20.958Z,26.83
2023-04-16T16:26:48.717Z,26.73
2023-04-16T16:29:16.437Z,26.47
2023-04-16T16:31:44.194Z,27.77
2023-04-16T16:34:20.357Z,25.30
2023-04-16T16:36:49.549Z,25.50
2023-04-16T16:39:17.260Z,22.67
2023-04-16T16:41:45.617Z,24.00
2023-04-16T16:44:13.371Z,23.50
2023-04-16T16:46:41.350Z,23.50
2023-04-16T16:49:09.893Z,22.93
2023-04-16T16:51:39.133Z,21.67
2023-04-16T16:54:07.791Z,23.30
2023-04-16T16:56:35.516Z,23.77
2023-04-16T16:59:03.894Z,25.20
2023-04-16T17:01:32.532Z,24.73
2023-04-16T17:04:00.428Z,23.27
2023-04-16T17:06:28.365Z,23.27
2023-04-16T17:08:57.518Z,24.37
2023-04-16T17:11:26.944Z,22.60
2023-04-16T17:13:55.051Z,22.97
2023-04-16T17:16:23.860Z,22.97
2023-04-16T17:18:51.697Z,23.93
2023-04-16T17:21:19.640Z,21.70
2023-04-16T17:23:47.358Z,26.30
2023-04-16T17:26:16.516Z,24.13
2023-04-16T17:28:44.219Z,24.90
2023-04-16T17:31:12.715Z,22.57
2023-04-16T17:33:40.504Z,25.63
2023-04-16T17:36:08.989Z,22.27
2023-04-16T17:38:36.707Z,24.63
2023-04-16T17:41:04.443Z,22.23
2023-04-16T17:43:33.517Z,24.77
2023-04-16T17:46:01.365Z,22.63
2023-04-16T17:48:29.195Z,23.40
2023-04-16T17:50:56.900Z,22.90
2023-04-16T17:53:24.642Z,22.98
2023-04-16T17:55:54.096Z,22.00
2023-04-16T17:58:23.198Z,22.73
2023-04-16T18:00:52.298Z,23.03
2023-04-16T18:03:21.944Z,22.97
2023-04-16T18:05:50.072Z,25.40
2023-04-16T18:08:17.828Z,20.43
2023-04-16T18:10:45.786Z,23.30
2023-04-16T18:13:13.625Z,26.93
2023-04-16T18:15:41.413Z,23.73
2023-04-16T18:18:10.814Z,25.27
2023-04-16T18:20:38.565Z,23.83
2023-04-16T18:23:06.283Z,22.40
2023-04-16T18:25:35.230Z,21.47
2023-04-16T18:28:03.762Z,24.07
2023-04-16T18:30:31.675Z,19.80
2023-04-16T18:35:31.406Z,16.60
2023-04-16T18:37:59.110Z,15.77
2023-04-16T18:40:26.962Z,15.97
2023-04-16T18:42:54.676Z,16.10
2023-04-16T18:45:22.374Z,14.93
2023-04-16T18:47:50.350Z,14.97
2023-04-16T18:50:18.312Z,15.57
2023-04-16T18:52:47.383Z,15.90
2023-04-16T18:55:15.339Z,14.27
2023-04-16T18:57:43.087Z,14.85
2023-04-16T19:00:12.766Z,15.27
2023-04-16T19:02:41.028Z,14.10
2023-04-16T19:05:09.794Z,12.87
2023-04-16T19:07:38.419Z,14.00
2023-04-16T19:10:08.982Z,14.30
2023-04-16T19:12:36.707Z,14.97
2023-04-16T19:15:04.886Z,14.57
2023-04-16T19:17:32.671Z,14.93
2023-04-16T19:20:00.583Z,13.20
2023-04-16T19:22:28.282Z,12.97
2023-04-16T19:24:56.016Z,14.20
2023-04-16T19:27:25.080Z,14.90
2023-04-16T19:29:52.780Z,15.07
2023-04-16T19:32:20.988Z,14.30
2023-04-16T19:34:48.718Z,13.37
2023-04-16T19:37:16.454Z,13.77
2023-04-16T19:39:44.152Z,15.27
2023-04-16T19:42:11.870Z,13.53
2023-04-16T19:44:40.941Z,13.40
2023-04-16T19:47:15.690Z,13.20
2023-04-16T19:49:43.668Z,14.50
2023-04-16T19:52:11.409Z,15.53
2023-04-16T19:54:39.113Z,14.80
2023-04-16T19:57:06.973Z,15.30
2023-04-16T19:59:34.702Z,14.50
2023-04-16T20:02:03.839Z,17.07
2023-04-16T20:04:31.774Z,15.13
2023-04-16T20:06:59.538Z,16.30
2023-04-16T20:09:27.315Z,15.30
2023-04-16T20:11:55.023Z,14.30
2023-04-16T20:14:22.849Z,15.03
2023-04-16T20:16:50.604Z,13.80
2023-04-16T20:19:19.786Z,13.30
2023-04-16T20:21:47.504Z,12.23
2023-04-16T20:24:15.432Z,11.93
2023-04-16T20:26:43.237Z,13.27
2023-04-16T20:29:11.188Z,12.87
2023-04-16T20:31:41.419Z,12.67
2023-04-16T20:34:09.202Z,12.43
2023-04-16T20:36:38.417Z,15.00
2023-04-16T20:39:07.200Z,13.23
2023-04-16T20:41:35.117Z,12.07
2023-04-16T20:44:05.352Z,13.53
2023-04-16T20:46:34.220Z,13.83
2023-04-16T20:49:02.334Z,15.17
2023-04-16T20:51:30.068Z,14.37
2023-04-16T20:53:59.151Z,18.38
2023-04-16T20:56:26.866Z,15.70
2023-04-16T20:58:55.851Z,15.30
2023-04-16T21:01:23.603Z,13.80
2023-04-16T21:03:52.043Z,12.83
2023-04-16T21:06:22.393Z,14.37
2023-04-16T21:08:50.472Z,13.80
2023-04-16T21:11:19.561Z,12.70
2023-04-16T21:13:47.301Z,13.73
2023-04-16T21:16:15.578Z,12.93
2023-04-16T21:18:43.332Z,15.13
2023-04-16T21:21:11.036Z,14.87
2023-04-16T21:23:38.739Z,17.03
2023-04-16T21:26:06.633Z,15.60
2023-04-16T21:28:35.908Z,15.70
2023-04-16T21:31:03.960Z,17.43
2023-04-16T21:33:31.953Z,18.67
2023-04-16T21:35:59.793Z,17.23
2023-04-16T21:38:27.589Z,18.77
2023-04-16T21:40:56.813Z,16.27
2023-04-16T21:43:25.032Z,16.60
2023-04-16T21:45:55.493Z,17.13
2023-04-16T21:48:23.762Z,17.57
2023-04-16T21:50:57.955Z,16.37
2023-04-16T21:53:26.102Z,16.10
2023-04-16T21:55:55.044Z,17.17
2023-04-16T21:58:22.817Z,16.23
2023-04-16T22:00:50.574Z,15.33
2023-04-16T22:03:19.825Z,16.30
2023-04-16T22:05:47.757Z,16.90
2023-04-16T22:08:24.039Z,16.17
2023-04-16T22:10:52.538Z,16.03
2023-04-16T22:13:21.651Z,16.53
2023-04-16T22:15:49.380Z,15.20
2023-04-16T22:18:17.094Z,16.40
2023-04-16T22:20:47.157Z,14.20
2023-04-16T22:23:14.887Z,15.10
2023-04-16T22:25:42.870Z,14.33
2023-04-16T22:28:12.765Z,16.90
2023-04-16T22:30:40.650Z,15.00
2023-04-16T22:33:08.595Z,16.20
2023-04-16T22:35:36.556Z,16.17
2023-04-16T22:38:05.766Z,13.80
2023-04-16T22:40:33.467Z,16.07
2023-04-16T22:43:01.220Z,14.63
2023-04-16T22:45:29.253Z,14.93
2023-04-16T22:47:57.048Z,15.50
2023-04-16T22:50:24.933Z,14.40
2023-04-16T22:52:52.665Z,16.13
2023-04-16T22:55:22.010Z,15.63
2023-04-16T22:57:50.124Z,15.33
2023-04-16T23:00:18.309Z,14.73
2023-04-16T23:02:46.226Z,17.43
2023-04-16T23:05:14.103Z,15.43
2023-04-16T23:07:41.972Z,16.02
2023-04-16T23:10:10.286Z,16.23
2023-04-16T23:12:39.337Z,16.30
2023-04-16T23:15:08.785Z,15.27
2023-04-16T23:17:36.645Z,15.93
2023-04-16T23:20:07.619Z,15.77
2023-04-16T23:22:35.939Z,15.53
2023-04-16T23:25:03.788Z,15.73
2023-04-16T23:27:32.461Z,15.93
2023-04-16T23:30:01.633Z,15.30
2023-04-16T23:32:29.347Z,14.43
2023-04-16T23:34:57.258Z,14.30
2023-04-16T23:37:25.426Z,16.37
2023-04-16T23:39:53.199Z,15.40
2023-04-16T23:42:20.929Z,16.90
2023-04-16T23:44:48.656Z,15.50
2023-04-16T23:47:17.731Z,16.83
2023-04-16T23:49:45.551Z,16.60
2023-04-16T23:52:13.305Z,16.23
2023-04-16T23:54:41.032Z,15.90
2023-04-16T23:57:08.758Z,15.27
2023-04-16T23:59:36.502Z,14.93
